ケアンズ の空港の天気 - METARとTAF

ケアンズ国際空港 ( YBCS / CNS ) - オーストラリア クイーンズランド州ケアンズ
飛行場実況気象(Metar)
観測時間06/18 05:30 AEST (06/17 19:30 UTC)
風向・風速西 1m/s
視程10km以上
天気現象
なし
気温17℃
湿度94%
気圧1015hPa
METARYBCS 171930Z AUTO 26001KT 9999 // NCD 17/16 Q1015 RMK RF00.0/000.0 FM2000 15010KT 9999 FEW025 SCT070
過去の天気等 Google飛行場航空写真 Wunderground天気予報

過去48時間のMETAR

飛行場予報(TAF)
発表時間: 6/18 02:39 AEST (6/17 16:39 UTC)
予報対象時間: 18日4時 AEST ~ 19日4時 AEST
風向・風速南南東 5m/s
視程10km以上
少しの雲 雲底高度 760m
全天の4割程度の雲 雲底高度 2130m
18日12時 AEST から
風向・風速東 6m/s
視程10km以上
少しの雲 雲底高度 1070m
少しの雲 雲底高度 2440m
18日18時 AEST から
風向・風速南 4m/s
視程10km以上
少しの雲 雲底高度 760m
少しの雲 雲底高度 2440m
19日1時 AEST から
風向・風速南南東 4m/s
視程10km以上
全天の4割程度の雲 雲底高度 610m
全天の4割程度の雲 雲底高度 2130m
TAF YBCS 171639Z 1718/1818 15010KT 9999 FEW025 SCT070
FM180200 10012KT 9999 FEW035 FEW080
FM180800 18007KT 9999 FEW025 FEW080
FM181500 16008KT 9999 SCT020 SCT070